Terminal Aerodrome Forecast
Issued by NWS

Home | Current Version | Previous Version | Graphics & Text | Print | Product List | Glossary On
Versions: 1 2 3 4 5 6 7 8 9 10 11 12 13 14 15 16 17 18
000
FTUS43 KIWX 160700 AAA
TAFSBN
TAF AMD
KSBN 160700Z 1607/1706 35003KT 6SM BR BKN005
      TEMPO 1607/1609 SCT005 OVC025
     FM160900 35003KT 6SM BR BKN020
     FM161400 31005KT P6SM BKN020
     FM161600 30008KT P6SM BKN035=

USA.gov is the U.S. government's official web portal to all federal, state and local government web resources and services.